Time;durP1;ratioP1;P1;durP2;ratioP2;P2;SDS_P1;SDS_P2;PMS_P1;PMS_P2;Temp;Humidity;BMP_temperature;BMP_pressure;BME280_temperature;BME280_humidity;BME280_pressure;Samples;Min_cycle;Max_cycle;Signal;HPM_P1;HPM_P2
2021/12/11 00:02:09;;;;;;;27.90;19.40;;;1.10;99.90;;;;;;5051476;28;20174;-66
2021/12/11 00:04:38;;;;;;;18.97;16.43;;;1.00;99.90;;;;;;5053093;28;20510;-65
2021/12/11 00:07:08;;;;;;;21.47;16.83;;;1.00;99.90;;;;;;5052964;28;20539;-65
2021/12/11 00:09:47;;;;;;;22.03;18.27;;;1.00;99.90;;;;;;5052957;28;20564;-65
2021/12/11 00:12:36;;;;;;;24.30;16.87;;;1.00;99.90;;;;;;5052586;28;20178;-65
2021/12/11 00:15:06;;;;;;;19.53;17.43;;;1.00;99.90;;;;;;5053038;28;20546;-66
2021/12/11 00:17:33;;;;;;;22.47;16.43;;;1.00;99.90;;;;;;5052664;28;20175;-65
2021/12/11 00:20:00;;;;;;;24.47;18.33;;;0.90;99.90;;;;;;5052634;28;20206;-64
2021/12/11 00:22:30;;;;;;;20.07;16.63;;;0.90;99.90;;;;;;5052612;28;20564;-63
2021/12/11 00:25:09;;;;;;;22.93;17.90;;;0.90;99.90;;;;;;5052791;28;20181;-64
2021/12/11 00:27:39;;;;;;;25.10;17.77;;;0.90;99.90;;;;;;5052365;28;20175;-66
2021/12/11 00:30:10;;;;;;;22.63;18.40;;;0.80;99.90;;;;;;5052508;28;20297;-64
2021/12/11 00:32:36;;;;;;;28.90;18.60;;;0.80;99.90;;;;;;5051974;28;20763;-64
2021/12/11 00:35:20;;;;;;;25.57;17.60;;;0.80;99.90;;;;;;5052529;28;20175;-65
2021/12/11 00:37:46;;;;;;;19.37;17.13;;;0.80;99.90;;;;;;5052200;28;20264;-64
2021/12/11 00:40:24;;;;;;;20.27;18.17;;;0.80;99.90;;;;;;5050797;28;20332;-64
2021/12/11 00:42:59;;;;;;;22.50;19.13;;;0.80;99.90;;;;;;5051879;28;20181;-65
2021/12/11 00:45:32;;;;;;;29.43;20.03;;;0.80;99.90;;;;;;5052133;28;20556;-64
2021/12/11 00:48:07;;;;;;;21.20;17.87;;;0.80;99.90;;;;;;5052083;28;20179;-64
2021/12/11 00:50:40;;;;;;;28.50;19.10;;;0.80;99.90;;;;;;5052117;28;20198;-64
2021/12/11 00:53:09;;;;;;;30.27;19.43;;;0.80;99.90;;;;;;5051582;28;20189;-64
2021/12/11 00:55:42;;;;;;;24.33;19.37;;;0.80;99.90;;;;;;5051874;28;20224;-65
2021/12/11 00:58:10;;;;;;;31.10;21.87;;;0.80;99.90;;;;;;5051906;28;20170;-64
2021/12/11 01:00:50;;;;;;;30.70;20.53;;;1.00;99.90;;;;;;5051581;28;20214;-64
2021/12/11 01:03:20;;;;;;;26.70;20.30;;;1.10;99.90;;;;;;5051563;28;20253;-64
2021/12/11 01:05:50;;;;;;;28.33;19.03;;;1.10;99.90;;;;;;5051620;28;20198;-65
2021/12/11 01:08:23;;;;;;;34.00;22.10;;;1.30;99.90;;;;;;5051651;28;20183;-65
2021/12/11 01:10:52;;;;;;;32.77;22.50;;;1.40;99.90;;;;;;5051330;28;20616;-64
2021/12/11 01:13:23;;;;;;;26.47;20.03;;;1.40;99.90;;;;;;5051485;28;20177;-65
2021/12/11 01:16:05;;;;;;;29.40;20.93;;;1.50;99.90;;;;;;5051518;28;20184;-64
2021/12/11 01:18:36;;;;;;;29.53;19.43;;;1.50;99.90;;;;;;5051602;28;20171;-65
2021/12/11 01:24:08;;;;;;;33.23;20.73;;;1.60;99.90;;;;;;5051405;28;20171;-64
2021/12/11 01:26:39;;;;;;;24.33;19.87;;;1.60;99.90;;;;;;5051560;28;20175;-64
2021/12/11 01:29:05;;;;;;;36.13;21.23;;;1.60;99.90;;;;;;5051633;28;20660;-64
2021/12/11 01:31:32;;;;;;;32.93;20.17;;;1.70;99.90;;;;;;5051406;28;20636;-64
2021/12/11 01:33:57;;;;;;;33.13;21.90;;;1.70;99.90;;;;;;5051698;28;20182;-64
2021/12/11 01:36:23;;;;;;;33.97;20.03;;;1.80;99.90;;;;;;5051386;28;20249;-65
2021/12/11 01:38:58;;;;;;;36.37;22.03;;;1.80;99.90;;;;;;5051409;28;20194;-66
2021/12/11 01:41:24;;;;;;;32.33;20.60;;;1.90;99.90;;;;;;5050445;28;20233;-65
2021/12/11 01:43:56;;;;;;;33.83;20.07;;;2.00;99.90;;;;;;5051149;28;20181;-65
2021/12/11 01:46:24;;;;;;;32.27;21.97;;;2.00;99.90;;;;;;5051393;28;20648;-65
2021/12/11 01:49:00;;;;;;;34.80;20.87;;;2.00;99.90;;;;;;5051241;28;20194;-65
2021/12/11 01:51:52;;;;;;;34.93;21.63;;;2.10;99.90;;;;;;5049870;28;20170;-65
2021/12/11 01:54:31;;;;;;;22.70;18.90;;;2.10;99.90;;;;;;5051085;28;20652;-63
2021/12/11 01:57:09;;;;;;;29.70;19.37;;;2.10;99.90;;;;;;5051274;28;20186;-65
2021/12/11 01:59:40;;;;;;;37.03;22.43;;;2.10;99.90;;;;;;5051115;28;20316;-66
2021/12/11 02:02:17;;;;;;;34.47;21.67;;;2.20;99.90;;;;;;5050625;28;20243;-66
2021/12/11 02:04:46;;;;;;;47.93;21.93;;;2.20;99.90;;;;;;5051061;28;20178;-64
2021/12/11 02:07:19;;;;;;;29.40;20.73;;;2.20;99.90;;;;;;5051213;28;20225;-65
2021/12/11 02:09:54;;;;;;;40.17;21.67;;;2.20;99.90;;;;;;5049971;28;20210;-64
2021/12/11 02:12:33;;;;;;;36.53;22.53;;;2.20;99.90;;;;;;5050916;28;20648;-65
2021/12/11 02:15:02;;;;;;;31.53;20.20;;;2.20;99.90;;;;;;5050677;28;20175;-65
2021/12/11 02:17:52;;;;;;;34.70;22.10;;;2.30;99.90;;;;;;5050817;28;20175;-65
2021/12/11 02:20:35;;;;;;;31.37;21.77;;;2.30;99.90;;;;;;5050932;28;20194;-65
2021/12/11 02:23:03;;;;;;;43.83;22.67;;;2.30;99.90;;;;;;5053140;28;20175;-65
2021/12/11 02:25:37;;;;;;;35.43;23.23;;;2.40;99.90;;;;;;5054929;28;20166;-64
2021/12/11 02:28:08;;;;;;;31.63;23.40;;;2.40;99.90;;;;;;5054672;28;20171;-64
2021/12/11 02:30:50;;;;;;;26.07;21.57;;;2.50;99.90;;;;;;5054835;28;20191;-63
2021/12/11 02:33:27;;;;;;;38.33;23.20;;;2.50;99.90;;;;;;5054304;28;20291;-64
2021/12/11 02:36:12;;;;;;;37.63;23.23;;;2.50;99.90;;;;;;5054715;28;20198;-64
2021/12/11 02:38:58;;;;;;;36.63;23.50;;;2.50;99.90;;;;;;5054340;28;20194;-64
2021/12/11 02:41:49;;;;;;;30.00;18.80;;;2.50;99.90;;;;;;5054630;28;20206;-64
2021/12/11 02:44:47;;;;;;;35.97;20.97;;;2.50;99.90;;;;;;5052794;28;20270;-63
2021/12/11 02:47:36;;;;;;;37.40;21.97;;;2.40;99.90;;;;;;5049847;28;20183;-63
2021/12/11 02:50:10;;;;;;;35.70;20.63;;;2.50;99.90;;;;;;5033188;28;20195;-66
2021/12/11 02:52:49;;;;;;;34.20;20.57;;;2.50;99.90;;;;;;5034942;28;20210;-64
2021/12/11 02:55:20;;;;;;;32.87;20.47;;;2.40;99.90;;;;;;5054476;28;20651;-64
2021/12/11 02:57:51;;;;;;;35.53;21.00;;;2.40;99.90;;;;;;5054059;28;20182;-64
2021/12/11 03:00:21;;;;;;;28.23;20.03;;;2.30;99.90;;;;;;5054224;28;20203;-63
2021/12/11 03:02:59;;;;;;;31.07;19.50;;;2.40;99.90;;;;;;5053698;28;20167;-63
2021/12/11 03:05:34;;;;;;;33.70;18.80;;;2.40;99.90;;;;;;5054222;28;20240;-63
2021/12/11 03:08:01;;;;;;;29.67;20.13;;;2.30;99.90;;;;;;5053919;28;20655;-65
2021/12/11 03:10:27;;;;;;;31.00;20.43;;;2.20;99.90;;;;;;5053949;28;20215;-64
2021/12/11 03:12:55;;;;;;;33.97;20.07;;;2.20;99.90;;;;;;5053667;28;20178;-64
2021/12/11 03:15:21;;;;;;;27.13;19.50;;;2.10;99.90;;;;;;5053794;28;20190;-64
2021/12/11 03:17:47;;;;;;;32.13;20.43;;;2.10;99.90;;;;;;5053737;28;20224;-64
2021/12/11 03:20:18;;;;;;;28.57;19.37;;;2.10;99.90;;;;;;5053581;28;20202;-64
2021/12/11 03:22:43;;;;;;;24.37;17.90;;;2.00;99.90;;;;;;5053643;28;20167;-64
2021/12/11 03:25:13;;;;;;;31.47;19.37;;;1.90;99.90;;;;;;5053695;28;20709;-65
2021/12/11 03:27:38;;;;;;;34.63;20.60;;;1.90;99.90;;;;;;5053626;28;20259;-65
2021/12/11 03:30:07;;;;;;;29.13;19.47;;;1.90;99.90;;;;;;5053407;28;20236;-65
2021/12/11 03:32:34;;;;;;;29.97;21.07;;;1.90;99.90;;;;;;5053196;28;20171;-65
2021/12/11 03:34:59;;;;;;;29.07;19.63;;;1.90;99.90;;;;;;5053478;28;20536;-65
2021/12/11 03:37:25;;;;;;;25.97;18.63;;;1.80;99.90;;;;;;5052679;28;20191;-65
2021/12/11 03:39:53;;;;;;;28.13;19.37;;;1.80;99.90;;;;;;5053281;28;20206;-64
2021/12/11 03:42:26;;;;;;;28.07;18.63;;;1.70;99.90;;;;;;5053089;28;20179;-66
2021/12/11 03:44:53;;;;;;;26.10;18.07;;;1.50;99.90;;;;;;5053055;28;20174;-64
2021/12/11 03:47:42;;;;;;;28.63;20.47;;;1.50;99.90;;;;;;5052798;28;20170;-64
2021/12/11 03:50:12;;;;;;;29.73;18.23;;;1.40;99.90;;;;;;5052870;28;20210;-65
2021/12/11 03:52:39;;;;;;;30.73;19.67;;;1.30;99.90;;;;;;5053798;28;20181;-65
2021/12/11 03:55:06;;;;;;;29.10;17.97;;;1.30;99.90;;;;;;5053191;28;20224;-64
2021/12/11 03:57:32;;;;;;;29.77;18.03;;;1.20;99.90;;;;;;5053393;28;20171;-66
2021/12/11 03:59:57;;;;;;;29.03;19.00;;;1.20;99.90;;;;;;5051375;28;20202;-65
2021/12/11 04:02:30;;;;;;;26.83;18.07;;;1.20;99.90;;;;;;5052814;28;20664;-66
2021/12/11 04:04:59;;;;;;;28.63;19.43;;;1.10;99.90;;;;;;5052826;28;20170;-64
2021/12/11 04:07:31;;;;;;;26.03;18.97;;;1.20;99.90;;;;;;5053060;28;20189;-65
2021/12/11 04:09:57;;;;;;;32.93;21.30;;;1.10;99.90;;;;;;5052577;28;20195;-65
2021/12/11 04:12:26;;;;;;;29.97;20.10;;;1.20;99.90;;;;;;5052629;28;20171;-64
2021/12/11 04:14:54;;;;;;;42.40;21.93;;;1.20;99.90;;;;;;5052626;28;20269;-64
2021/12/11 04:17:22;;;;;;;38.97;20.50;;;1.20;99.90;;;;;;5052728;28;20643;-66
2021/12/11 04:19:51;;;;;;;31.10;20.10;;;1.10;99.90;;;;;;5052127;28;20241;-66
2021/12/11 04:22:17;;;;;;;30.10;18.60;;;1.10;99.90;;;;;;5052243;28;20584;-64
2021/12/11 04:24:45;;;;;;;41.10;20.47;;;1.20;99.90;;;;;;5052413;28;20183;-65
2021/12/11 04:27:12;;;;;;;35.97;21.97;;;1.10;99.90;;;;;;5052534;28;20217;-65
2021/12/11 04:29:39;;;;;;;31.47;20.80;;;1.10;99.90;;;;;;5052270;28;20202;-65
2021/12/11 04:32:06;;;;;;;42.27;22.47;;;1.10;99.90;;;;;;5051987;28;20531;-65
2021/12/11 04:34:32;;;;;;;32.70;22.13;;;1.00;99.90;;;;;;5052025;28;20226;-63
2021/12/11 04:37:10;;;;;;;40.57;23.63;;;1.10;99.90;;;;;;5052379;28;20272;-65
2021/12/11 04:39:37;;;;;;;42.30;22.63;;;1.10;99.90;;;;;;5051884;28;20684;-65
2021/12/11 04:42:15;;;;;;;34.60;22.37;;;1.00;99.90;;;;;;5051920;28;20182;-64
2021/12/11 04:44:44;;;;;;;30.73;21.07;;;1.00;99.90;;;;;;5051305;28;20199;-66
2021/12/11 04:47:18;;;;;;;36.13;18.47;;;1.00;99.90;;;;;;5047675;28;20186;-65
2021/12/11 04:49:54;;;;;;;45.07;21.63;;;1.00;99.90;;;;;;5052057;28;20256;-65
2021/12/11 04:52:33;;;;;;;29.17;19.53;;;1.00;99.90;;;;;;5031808;28;20193;-65
2021/12/11 04:57:58;;;;;;;42.00;22.00;;;1.00;99.90;;;;;;5051890;28;20577;-65
2021/12/11 05:00:40;;;;;;;36.17;21.50;;;0.90;99.90;;;;;;5051535;28;20205;-64
2021/12/11 05:06:13;;;;;;;41.00;21.20;;;0.90;99.90;;;;;;5051704;28;20189;-63
2021/12/11 05:09:13;;;;;;;39.40;19.80;;;0.90;99.90;;;;;;5051546;28;20576;-65
2021/12/11 05:11:48;;;;;;;34.67;19.80;;;0.80;99.90;;;;;;5051690;28;20542;-65
2021/12/11 05:14:15;;;;;;;31.10;20.03;;;0.90;99.90;;;;;;5051135;28;20167;-64
2021/12/11 05:16:41;;;;;;;36.00;20.47;;;0.80;99.90;;;;;;5051737;28;20210;-66
2021/12/11 05:19:08;;;;;;;36.17;20.80;;;0.70;99.90;;;;;;5051296;28;20194;-64
2021/12/11 05:21:34;;;;;;;38.90;21.57;;;0.70;99.90;;;;;;5051589;28;20585;-65
2021/12/11 05:24:01;;;;;;;35.90;20.80;;;0.60;99.90;;;;;;5050998;28;20549;-65
2021/12/11 05:26:27;;;;;;;30.60;19.17;;;0.60;99.90;;;;;;5051479;28;20167;-64
2021/12/11 05:28:53;;;;;;;51.03;22.40;;;0.60;99.90;;;;;;5051270;28;20572;-64
2021/12/11 05:31:19;;;;;;;37.77;22.43;;;0.70;99.90;;;;;;5031465;28;20194;-64
2021/12/11 05:33:46;;;;;;;42.73;21.00;;;0.70;99.90;;;;;;5041550;28;20186;-66
2021/12/11 05:36:14;;;;;;;39.73;20.07;;;0.80;99.90;;;;;;5050771;28;20183;-64
2021/12/11 05:38:41;;;;;;;30.93;19.63;;;0.80;99.90;;;;;;5051139;28;20635;-64
2021/12/11 05:41:11;;;;;;;31.33;19.97;;;0.80;99.90;;;;;;5050794;28;20203;-64
2021/12/11 05:43:37;;;;;;;32.93;20.23;;;0.70;99.90;;;;;;5050614;28;20167;-64
2021/12/11 05:46:05;;;;;;;25.97;19.27;;;0.80;99.90;;;;;;5051133;28;20171;-63
2021/12/11 05:48:31;;;;;;;38.03;20.73;;;0.80;99.90;;;;;;5051067;28;20624;-64
2021/12/11 05:51:01;;;;;;;28.83;18.27;;;0.80;99.90;;;;;;5051159;28;20263;-64
2021/12/11 05:53:28;;;;;;;25.47;19.30;;;0.70;99.90;;;;;;5050555;28;20179;-63
2021/12/11 05:55:55;;;;;;;32.80;19.27;;;0.70;99.90;;;;;;5051840;28;20672;-64
2021/12/11 05:58:45;;;;;;;40.00;19.17;;;0.60;99.90;;;;;;5055025;28;20261;-64
2021/12/11 06:01:08;;;;;;;27.83;19.37;;;0.60;99.90;;;;;;5054866;28;20221;-65
2021/12/11 06:03:37;;;;;;;27.17;16.53;;;0.50;99.90;;;;;;5054635;28;20175;-64
2021/12/11 06:06:03;;;;;;;40.23;20.13;;;0.50;99.90;;;;;;5054813;28;20179;-64
2021/12/11 06:08:31;;;;;;;30.30;18.37;;;0.50;99.90;;;;;;5053901;28;20171;-65
2021/12/11 06:10:58;;;;;;;25.33;16.50;;;0.60;99.90;;;;;;5054554;28;20269;-64
2021/12/11 06:13:25;;;;;;;30.57;18.77;;;0.60;99.90;;;;;;5054671;28;20593;-64
2021/12/11 06:15:52;;;;;;;33.00;20.40;;;0.70;99.90;;;;;;5054613;28;20542;-64
2021/12/11 06:18:19;;;;;;;38.77;20.23;;;0.80;99.90;;;;;;5053875;28;20198;-64
2021/12/11 06:20:47;;;;;;;34.27;17.37;;;0.90;99.90;;;;;;5054896;28;20202;-64
2021/12/11 06:23:17;;;;;;;32.70;18.70;;;1.00;99.90;;;;;;5054274;28;20257;-64
2021/12/11 06:25:42;;;;;;;31.17;19.07;;;1.10;99.90;;;;;;5054715;28;20171;-65
2021/12/11 06:28:08;;;;;;;31.83;18.23;;;1.20;99.90;;;;;;5054559;28;20178;-64
2021/12/11 06:30:36;;;;;;;35.90;18.60;;;1.20;99.90;;;;;;5054719;28;20191;-64
2021/12/11 06:33:03;;;;;;;36.10;19.60;;;1.40;99.90;;;;;;5053994;28;20294;-64
2021/12/11 06:35:37;;;;;;;29.20;17.23;;;1.40;99.90;;;;;;5054627;28;20179;-65
2021/12/11 06:38:05;;;;;;;39.00;21.13;;;1.60;99.90;;;;;;5054150;28;20648;-64
2021/12/11 06:40:31;;;;;;;34.00;18.50;;;1.70;99.90;;;;;;5054298;28;20214;-64
2021/12/11 06:42:57;;;;;;;34.07;20.13;;;1.70;99.90;;;;;;5054025;28;20205;-65
2021/12/11 06:45:24;;;;;;;35.47;18.13;;;1.80;99.90;;;;;;5054489;28;20624;-64
2021/12/11 06:47:50;;;;;;;32.33;18.57;;;1.80;99.90;;;;;;5053928;28;20238;-64
2021/12/11 06:50:18;;;;;;;41.97;21.33;;;1.90;99.90;;;;;;5053106;28;20198;-64
2021/12/11 06:52:44;;;;;;;38.87;20.00;;;1.90;99.90;;;;;;5053776;28;20186;-64
2021/12/11 06:55:10;;;;;;;34.37;20.03;;;2.00;99.90;;;;;;5052527;28;20271;-64
2021/12/11 06:57:36;;;;;;;34.33;20.63;;;2.00;99.90;;;;;;5052182;28;20629;-65
2021/12/11 07:00:05;;;;;;;44.97;19.83;;;2.10;99.90;;;;;;5053536;28;20191;-65
2021/12/11 07:02:31;;;;;;;37.83;20.53;;;2.20;99.90;;;;;;5053583;28;20178;-65
2021/12/11 07:04:57;;;;;;;34.37;20.13;;;2.20;99.90;;;;;;5053429;28;20179;-65
2021/12/11 07:07:31;;;;;;;36.60;21.67;;;2.20;99.90;;;;;;5053173;28;20180;-65
2021/12/11 07:09:57;;;;;;;38.87;19.13;;;2.30;99.90;;;;;;5053524;28;20233;-65
2021/12/11 07:12:23;;;;;;;37.00;21.73;;;2.30;99.90;;;;;;5053615;28;20628;-67
2021/12/11 07:14:49;;;;;;;35.40;20.07;;;2.20;99.90;;;;;;5053674;28;20190;-65
2021/12/11 07:17:15;;;;;;;33.07;20.20;;;2.20;99.90;;;;;;5053712;28;20265;-65
2021/12/11 07:19:41;;;;;;;38.40;21.03;;;2.20;99.90;;;;;;5053372;28;20209;-65
2021/12/11 07:22:07;;;;;;;41.57;20.90;;;2.20;99.90;;;;;;5053143;28;20655;-65
2021/12/11 07:24:40;;;;;;;41.67;22.17;;;2.20;99.90;;;;;;5053948;28;20218;-65
2021/12/11 07:27:08;;;;;;;29.00;18.87;;;2.20;99.90;;;;;;5051951;28;20272;-65
2021/12/11 07:29:33;;;;;;;44.47;22.73;;;2.20;99.90;;;;;;5053112;28;20284;-66
2021/12/11 07:32:00;;;;;;;35.50;21.00;;;2.30;99.90;;;;;;5053271;28;20226;-67
2021/12/11 07:34:26;;;;;;;44.83;22.33;;;2.30;99.90;;;;;;5051692;28;20636;-65
2021/12/11 07:36:52;;;;;;;35.10;21.07;;;2.40;99.90;;;;;;5052999;28;20264;-65
2021/12/11 07:39:20;;;;;;;36.80;20.17;;;2.40;99.90;;;;;;5052662;28;20210;-65
2021/12/11 07:41:47;;;;;;;41.67;22.73;;;2.40;99.90;;;;;;5052937;28;20213;-65
2021/12/11 07:44:14;;;;;;;36.67;22.67;;;2.50;99.90;;;;;;5051228;28;20223;-64
2021/12/11 07:46:40;;;;;;;44.33;23.33;;;2.50;99.90;;;;;;5052980;28;20214;-65
2021/12/11 07:49:06;;;;;;;44.97;22.73;;;2.60;99.90;;;;;;5051938;28;20292;-67
2021/12/11 07:51:34;;;;;;;42.10;21.50;;;2.70;99.90;;;;;;5051304;28;20185;-65
2021/12/11 07:54:01;;;;;;;44.27;22.77;;;2.80;99.90;;;;;;5052856;28;20228;-64
2021/12/11 07:56:27;;;;;;;34.20;21.37;;;2.80;99.90;;;;;;5052751;28;20201;-65
2021/12/11 07:58:59;;;;;;;44.23;22.70;;;2.90;99.90;;;;;;5052793;28;20195;-65
2021/12/11 08:01:26;;;;;;;30.37;18.60;;;3.00;99.90;;;;;;5052819;28;20234;-65
2021/12/11 08:03:51;;;;;;;41.43;22.20;;;3.10;99.90;;;;;;5052492;28;20270;-65
2021/12/11 08:06:17;;;;;;;48.47;20.87;;;3.20;99.90;;;;;;5052193;28;20265;-66
2021/12/11 08:08:45;;;;;;;34.30;20.53;;;3.30;99.90;;;;;;5051378;28;20203;-65
2021/12/11 08:11:17;;;;;;;37.87;21.80;;;3.30;99.90;;;;;;5052740;28;20232;-65
2021/12/11 08:13:45;;;;;;;28.93;18.00;;;3.30;99.90;;;;;;5052060;28;20629;-65
2021/12/11 08:16:13;;;;;;;36.77;18.70;;;3.30;99.90;;;;;;5052404;28;20556;-65
2021/12/11 08:18:39;;;;;;;35.10;19.23;;;3.30;99.90;;;;;;5051945;28;20194;-65
2021/12/11 08:21:06;;;;;;;40.30;21.13;;;3.30;99.90;;;;;;5051520;28;20239;-65
2021/12/11 08:23:32;;;;;;;38.70;19.37;;;3.30;99.90;;;;;;5051890;28;20170;-65
2021/12/11 08:25:59;;;;;;;32.10;18.20;;;3.40;99.90;;;;;;5052202;28;20171;-66
2021/12/11 08:28:29;;;;;;;40.73;19.73;;;3.40;99.90;;;;;;5051932;28;20266;-66
2021/12/11 08:30:55;;;;;;;34.03;20.00;;;3.50;99.90;;;;;;5052343;28;20561;-66
2021/12/11 08:33:23;;;;;;;34.33;20.37;;;3.50;99.90;;;;;;5052645;28;20183;-66
2021/12/11 08:35:49;;;;;;;40.87;20.93;;;3.60;99.90;;;;;;5050603;28;20265;-66
2021/12/11 08:38:17;;;;;;;45.97;21.80;;;3.70;99.90;;;;;;5051691;28;20252;-69
2021/12/11 08:40:50;;;;;;;42.47;20.13;;;3.70;99.90;;;;;;5052017;28;20285;-66
2021/12/11 08:43:18;;;;;;;36.33;21.13;;;3.80;99.90;;;;;;5051510;28;20605;-66
2021/12/11 08:45:56;;;;;;;42.03;19.10;;;3.80;99.90;;;;;;5050487;28;20174;-66
2021/12/11 08:48:24;;;;;;;40.13;20.20;;;3.80;99.90;;;;;;5048029;28;20171;-66
2021/12/11 08:50:53;;;;;;;38.73;21.93;;;3.90;99.90;;;;;;5052106;28;20173;-66
2021/12/11 08:53:20;;;;;;;31.03;18.07;;;3.80;99.90;;;;;;5051010;28;20178;-66
2021/12/11 08:55:49;;;;;;;41.37;20.03;;;3.80;99.90;;;;;;5050974;28;20552;-66
2021/12/11 08:58:17;;;;;;;29.83;18.20;;;3.80;99.90;;;;;;5051429;28;20175;-66
2021/12/11 09:00:57;;;;;;;37.87;20.07;;;3.80;99.90;;;;;;5050476;28;20203;-66
2021/12/11 09:03:31;;;;;;;38.23;22.00;;;3.80;99.90;;;;;;5051125;28;20648;-66
2021/12/11 09:06:13;;;;;;;40.50;20.90;;;3.80;99.90;;;;;;5051930;28;20162;-66
2021/12/11 09:08:49;;;;;;;45.57;22.03;;;3.80;99.90;;;;;;5050096;28;20190;-66
2021/12/11 09:11:18;;;;;;;42.63;20.40;;;3.70;99.90;;;;;;5051590;28;20213;-65
2021/12/11 09:13:57;;;;;;;39.07;20.33;;;3.70;99.90;;;;;;5051094;28;20186;-65
2021/12/11 09:16:34;;;;;;;50.43;22.17;;;3.70;99.90;;;;;;5051507;28;20174;-66
2021/12/11 09:19:15;;;;;;;43.00;20.40;;;3.70;99.90;;;;;;5051412;28;20202;-65
2021/12/11 09:22:07;;;;;;;41.43;21.80;;;3.70;99.90;;;;;;5051356;28;20301;-66
2021/12/11 09:24:46;;;;;;;37.17;20.53;;;3.70;99.90;;;;;;5050907;28;20170;-66
2021/12/11 09:27:23;;;;;;;41.87;20.80;;;3.60;99.90;;;;;;5051202;28;20171;-66
2021/12/11 09:30:12;;;;;;;41.37;23.07;;;3.70;99.90;;;;;;5051385;28;20217;-65
2021/12/11 09:32:55;;;;;;;46.77;23.60;;;3.70;99.90;;;;;;5050743;28;20179;-65
2021/12/11 09:35:31;;;;;;;44.47;21.83;;;3.70;99.90;;;;;;5050073;28;20553;-65
2021/12/11 09:38:05;;;;;;;45.57;23.43;;;3.70;99.90;;;;;;5050621;28;20588;-66
2021/12/11 09:40:39;;;;;;;52.87;31.83;;;3.80;99.90;;;;;;5050653;28;20202;-66
2021/12/11 09:43:06;;;;;;;43.47;22.57;;;3.80;99.90;;;;;;5050990;28;20198;-65
2021/12/11 09:45:42;;;;;;;51.90;22.53;;;3.80;99.90;;;;;;5050804;28;20167;-66
2021/12/11 09:48:14;;;;;;;58.63;23.87;;;3.90;99.90;;;;;;5040272;28;20170;-65
2021/12/11 09:50:52;;;;;;;44.60;20.57;;;3.90;99.90;;;;;;5051166;28;20587;-66
2021/12/11 10:16:03;;;;;;;44.40;19.77;;;4.30;99.90;;;;;;5051370;23;20227;-65
2021/12/11 10:18:30;;;;;;;32.90;19.00;;;4.30;99.90;;;;;;5030589;28;20175;-63
2021/12/11 10:21:12;;;;;;;41.47;20.37;;;4.30;99.90;;;;;;5030780;28;20207;-65
2021/12/11 10:23:40;;;;;;;33.67;18.50;;;4.40;99.90;;;;;;5029214;28;20192;-65
2021/12/11 10:26:10;;;;;;;41.23;19.60;;;4.50;99.90;;;;;;5031164;28;20202;-66
2021/12/11 10:28:39;;;;;;;34.57;19.87;;;4.60;99.90;;;;;;5052277;22;20182;-66
2021/12/11 10:31:14;;;;;;;40.43;19.93;;;4.80;99.90;;;;;;5011075;28;20218;-66
2021/12/11 10:33:41;;;;;;;35.97;20.07;;;4.90;99.90;;;;;;5011034;28;20172;-67
2021/12/11 10:36:10;;;;;;;42.47;17.27;;;5.00;99.90;;;;;;5010736;28;20181;-67
2021/12/11 10:38:39;;;;;;;34.77;16.97;;;5.00;99.90;;;;;;5011261;28;20270;-67
2021/12/11 10:41:07;;;;;;;41.23;18.33;;;5.10;99.90;;;;;;5010957;28;20219;-66
2021/12/11 10:43:42;;;;;;;32.37;17.47;;;5.10;99.90;;;;;;5011542;28;20563;-67
2021/12/11 10:46:10;;;;;;;29.13;17.20;;;5.10;99.90;;;;;;5014406;28;20190;-66
2021/12/11 10:48:37;;;;;;;26.97;16.73;;;5.20;99.90;;;;;;5012761;28;20199;-66
2021/12/11 10:51:39;;;;;;;37.90;18.37;;;5.20;99.90;;;;;;5012808;28;20180;-67
2021/12/11 10:54:06;;;;;;;35.07;19.40;;;5.30;99.90;;;;;;4981385;28;20180;-66
2021/12/11 10:56:32;;;;;;;35.87;20.27;;;5.30;99.90;;;;;;5014445;28;20650;-66
2021/12/11 10:59:03;;;;;;;29.63;19.57;;;5.40;99.90;;;;;;5014360;28;20219;-66
2021/12/11 11:01:43;;;;;;;42.70;20.87;;;5.40;99.90;;;;;;5014107;28;20239;-66
2021/12/11 11:04:17;;;;;;;27.87;18.20;;;5.50;99.90;;;;;;5013819;28;20251;-66
2021/12/11 11:06:45;;;;;;;37.43;20.20;;;5.50;99.90;;;;;;5014309;28;20172;-66
2021/12/11 11:09:12;;;;;;;38.27;19.83;;;5.60;99.90;;;;;;5013993;28;20563;-67
2021/12/11 11:11:39;;;;;;;21.37;15.33;;;5.70;99.90;;;;;;5014067;28;20515;-67
2021/12/11 11:14:07;;;;;;;23.53;15.37;;;5.70;99.90;;;;;;5013643;28;20176;-67
2021/12/11 11:16:35;;;;;;;20.80;15.40;;;5.80;99.90;;;;;;5013943;28;20208;-67
2021/12/11 11:19:02;;;;;;;25.33;16.90;;;5.70;99.90;;;;;;5013852;28;20200;-67
2021/12/11 11:21:36;;;;;;;25.97;16.23;;;5.80;99.90;;;;;;5012931;28;20624;-67
2021/12/11 11:24:05;;;;;;;29.03;17.30;;;5.90;99.90;;;;;;4993873;28;20191;-66
2021/12/11 11:26:34;;;;;;;22.13;17.10;;;6.00;99.90;;;;;;4994328;28;20165;-66
2021/12/11 11:29:03;;;;;;;25.73;15.67;;;6.10;99.90;;;;;;5012152;28;20274;-66
2021/12/11 11:31:36;;;;;;;22.87;14.27;;;6.10;99.90;;;;;;5013662;28;20477;-66
2021/12/11 11:34:05;;;;;;;24.87;14.77;;;6.10;99.90;;;;;;5013320;28;20188;-66
2021/12/11 11:36:32;;;;;;;18.00;14.23;;;6.00;99.90;;;;;;5011765;28;20183;-65
2021/12/11 11:39:00;;;;;;;15.87;14.17;;;6.00;99.90;;;;;;5013593;28;20192;-66
2021/12/11 11:41:30;;;;;;;20.87;13.17;;;6.10;99.90;;;;;;5013212;28;20200;-66
2021/12/11 11:43:58;;;;;;;21.07;13.50;;;6.20;99.90;;;;;;5013366;28;20168;-66
2021/12/11 11:46:24;;;;;;;14.27;12.83;;;6.20;99.90;;;;;;5013340;28;20593;-66
2021/12/11 11:48:56;;;;;;;9.63;8.87;;;6.20;99.90;;;;;;5013282;28;20192;-66
2021/12/11 11:51:36;;;;;;;16.27;13.13;;;6.20;99.90;;;;;;5013298;28;20283;-66
2021/12/11 11:54:04;;;;;;;22.67;14.27;;;6.20;99.90;;;;;;4993192;28;20199;-66
2021/12/11 11:56:34;;;;;;;16.80;14.20;;;6.30;99.90;;;;;;5024140;28;20184;-66
2021/12/11 11:59:03;;;;;;;20.07;12.80;;;6.40;99.90;;;;;;5013103;28;20546;-66
2021/12/11 12:02:00;;;;;;;15.20;13.67;;;6.40;99.90;;;;;;5013131;28;20207;-66
2021/12/11 12:04:26;;;;;;;14.53;13.17;;;6.40;99.90;;;;;;5005043;28;20185;-66
2021/12/11 12:06:56;;;;;;;13.03;11.40;;;6.50;99.90;;;;;;5013115;28;20650;-66
2021/12/11 12:09:23;;;;;;;15.17;12.10;;;6.50;99.90;;;;;;5011492;28;20210;-66
2021/12/11 12:11:49;;;;;;;14.10;12.80;;;6.60;99.90;;;;;;5012102;28;20646;-67
2021/12/11 12:14:19;;;;;;;21.30;14.20;;;6.60;99.90;;;;;;5011334;28;20544;-66
2021/12/11 12:16:47;;;;;;;16.13;12.93;;;6.70;99.90;;;;;;5012958;28;20176;-66
2021/12/11 12:19:13;;;;;;;14.90;13.27;;;6.80;99.90;;;;;;5012834;28;20189;-66
2021/12/11 12:21:41;;;;;;;14.67;13.00;;;6.80;99.90;;;;;;5012702;28;20573;-66
2021/12/11 12:24:08;;;;;;;14.57;13.07;;;6.80;99.90;;;;;;5012322;28;20709;-66
2021/12/11 12:26:35;;;;;;;17.80;14.50;;;6.80;99.90;;;;;;5012667;28;20184;-66
2021/12/11 12:29:03;;;;;;;21.27;13.70;;;6.70;99.90;;;;;;5011649;28;20216;-66
2021/12/11 12:31:44;;;;;;;24.27;13.13;;;6.70;99.90;;;;;;5003253;28;20242;-66
2021/12/11 12:34:13;;;;;;;16.87;13.13;;;6.80;99.90;;;;;;5012305;28;20177;-66
2021/12/11 12:36:41;;;;;;;16.77;14.23;;;6.70;99.90;;;;;;5012756;28;20271;-66
2021/12/11 12:39:08;;;;;;;18.23;13.97;;;6.80;99.90;;;;;;5012594;28;20207;-67
2021/12/11 12:41:38;;;;;;;16.10;13.67;;;6.80;99.90;;;;;;5012487;28;20210;-66
2021/12/11 12:44:18;;;;;;;14.23;12.97;;;6.80;99.90;;;;;;5012331;28;20164;-66
2021/12/11 12:46:58;;;;;;;14.40;13.00;;;6.80;99.90;;;;;;5012442;28;20179;-66
2021/12/11 12:49:28;;;;;;;16.27;13.97;;;6.80;99.90;;;;;;5007649;28;20602;-66
2021/12/11 12:51:56;;;;;;;16.27;13.07;;;6.70;99.90;;;;;;5012511;28;20199;-66
2021/12/11 12:54:24;;;;;;;15.90;14.00;;;6.70;99.90;;;;;;5012126;28;20180;-66
2021/12/11 12:57:07;;;;;;;13.90;12.63;;;6.70;99.90;;;;;;5012399;28;20195;-66
2021/12/11 12:59:37;;;;;;;16.37;14.73;;;6.60;99.90;;;;;;5011423;28;20203;-66
2021/12/11 13:02:07;;;;;;;16.70;13.30;;;6.70;99.90;;;;;;5011668;28;20204;-66
2021/12/11 13:04:37;;;;;;;17.93;14.37;;;6.70;99.90;;;;;;5012256;28;20176;-66
2021/12/11 13:07:08;;;;;;;15.77;14.17;;;6.70;99.90;;;;;;5010788;28;20511;-66
2021/12/11 13:09:41;;;;;;;15.07;12.40;;;6.70;99.90;;;;;;5012007;28;20254;-66
2021/12/11 13:12:20;;;;;;;14.83;13.43;;;6.70;99.90;;;;;;5010845;28;20642;-66
2021/12/11 13:14:47;;;;;;;16.70;11.40;;;6.80;99.90;;;;;;5012025;28;20568;-66
2021/12/11 13:17:18;;;;;;;14.57;13.23;;;6.90;99.90;;;;;;5011071;28;20176;-66
2021/12/11 13:19:49;;;;;;;13.10;11.30;;;6.90;99.90;;;;;;5011797;28;20254;-66
2021/12/11 13:22:19;;;;;;;12.67;11.70;;;6.90;99.90;;;;;;5011152;28;20573;-66
2021/12/11 13:24:49;;;;;;;11.33;10.33;;;6.90;99.90;;;;;;5012066;28;20169;-66
2021/12/11 13:27:18;;;;;;;11.53;10.63;;;6.80;99.90;;;;;;5011662;28;20164;-66